createdAt,value
2017-12-16T00:01:46.505Z,97.49
2017-12-16T00:04:14.025Z,97.21
2017-12-16T00:06:41.577Z,97.64
2017-12-16T00:09:09.108Z,97.93
2017-12-16T00:11:36.630Z,97.22
2017-12-16T00:14:04.147Z,96.31
2017-12-16T00:16:31.683Z,94.97
2017-12-16T00:18:59.199Z,93.46
2017-12-16T00:21:26.755Z,93.64
2017-12-16T00:23:54.269Z,92.92
2017-12-16T00:26:21.782Z,92.27
2017-12-16T00:28:49.309Z,91.40
2017-12-16T00:31:16.829Z,92.28
2017-12-16T00:33:44.373Z,94.91
2017-12-16T00:36:11.909Z,95.87
2017-12-16T00:38:39.441Z,96.38
2017-12-16T00:41:06.978Z,95.79
2017-12-16T00:43:49.593Z,96.51
2017-12-16T00:46:19.944Z,96.69
2017-12-16T00:48:51.083Z,96.84
2017-12-16T00:51:22.382Z,97.46
2017-12-16T00:53:55.890Z,97.63
2017-12-16T00:56:29.228Z,97.14
2017-12-16T00:59:01.222Z,97.10
2017-12-16T01:01:32.960Z,97.48
2017-12-16T01:04:03.436Z,97.40
2017-12-16T01:06:34.475Z,95.99
2017-12-16T01:09:08.387Z,93.05
2017-12-16T01:11:40.942Z,92.96
2017-12-16T01:14:36.441Z,95.04
2017-12-16T01:17:31.140Z,97.35
2017-12-16T01:20:33.211Z,98.44
2017-12-16T01:23:35.946Z,98.39
2017-12-16T01:26:35.781Z,97.58
2017-12-16T01:29:33.968Z,97.02
2017-12-16T01:32:41.600Z,97.76
2017-12-16T01:39:07.368Z,96.76
2017-12-16T01:41:54.286Z,96.77
2017-12-16T01:44:49.620Z,97.61
2017-12-16T01:47:39.666Z,97.79
2017-12-16T01:50:35.097Z,97.68
2017-12-16T01:53:25.094Z,97.27
2017-12-16T01:56:23.872Z,95.76
2017-12-16T01:59:19.672Z,95.35
2017-12-16T02:02:08.209Z,96.68
2017-12-16T02:04:44.359Z,97.13
2017-12-16T02:07:45.822Z,96.95
2017-12-16T02:10:39.100Z,96.32
2017-12-16T02:13:30.492Z,95.11
2017-12-16T02:16:15.195Z,92.64
2017-12-16T02:18:44.770Z,91.92
2017-12-16T02:21:16.930Z,91.08
2017-12-16T02:23:47.251Z,90.92
2017-12-16T02:26:19.737Z,90.57
2017-12-16T02:28:51.849Z,91.17
2017-12-16T02:31:24.451Z,92.73
2017-12-16T02:33:56.925Z,93.34
2017-12-16T02:36:28.374Z,92.69
2017-12-16T02:38:58.522Z,91.70
2017-12-16T02:41:30.010Z,91.46
2017-12-16T02:44:02.085Z,91.57
2017-12-16T02:46:33.606Z,94.07
2017-12-16T02:49:04.707Z,94.97
2017-12-16T02:51:36.397Z,94.78
2017-12-16T02:54:07.212Z,95.66
2017-12-16T02:56:39.796Z,95.79
2017-12-16T02:59:09.791Z,94.04
2017-12-16T03:01:41.904Z,92.68
2017-12-16T03:04:13.760Z,91.43
2017-12-16T03:06:44.277Z,91.11
2017-12-16T03:09:15.613Z,90.49
2017-12-16T03:11:48.974Z,90.62
2017-12-16T03:14:31.217Z,92.11
2017-12-16T03:17:28.892Z,93.99
2017-12-16T03:20:17.186Z,95.10
2017-12-16T03:22:47.122Z,93.96
2017-12-16T03:25:19.308Z,93.97
2017-12-16T03:28:00.482Z,93.49
2017-12-16T03:31:01.394Z,92.36
2017-12-16T03:34:04.576Z,92.81
2017-12-16T03:37:20.057Z,90.87
2017-12-16T03:40:08.337Z,90.93
2017-12-16T03:43:05.279Z,93.74
2017-12-16T03:45:58.732Z,93.62
2017-12-16T03:48:47.940Z,93.27
2017-12-16T03:51:43.986Z,92.71
2017-12-16T03:54:35.471Z,95.07
2017-12-16T03:57:30.295Z,95.49
2017-12-16T04:00:33.863Z,96.14
2017-12-16T04:03:36.489Z,95.04
2017-12-16T04:06:05.203Z,94.69
2017-12-16T04:08:35.836Z,93.95
2017-12-16T04:11:07.363Z,95.33
2017-12-16T04:13:38.588Z,94.88
2017-12-16T04:16:07.556Z,94.30
2017-12-16T04:18:41.151Z,93.46
2017-12-16T04:21:13.116Z,92.90
2017-12-16T04:23:46.417Z,93.33
2017-12-16T04:26:21.186Z,93.63
2017-12-16T04:28:56.061Z,95.30
2017-12-16T04:31:28.370Z,96.19
2017-12-16T04:34:00.353Z,96.56
2017-12-16T04:36:32.108Z,96.79
2017-12-16T04:39:05.441Z,97.00
2017-12-16T04:41:38.379Z,96.20
2017-12-16T04:44:11.157Z,96.91
2017-12-16T04:46:42.497Z,96.86
2017-12-16T04:49:12.241Z,96.60
2017-12-16T04:51:42.701Z,95.46
2017-12-16T04:54:14.802Z,94.48
2017-12-16T04:56:46.728Z,94.33
2017-12-16T04:59:17.271Z,95.80
2017-12-16T05:01:49.320Z,97.14
2017-12-16T05:04:21.337Z,98.08
2017-12-16T05:06:53.213Z,97.71
2017-12-16T05:09:24.046Z,96.74
2017-12-16T05:11:55.767Z,95.82
2017-12-16T05:14:27.160Z,95.84
2017-12-16T05:16:58.836Z,96.32
2017-12-16T05:19:30.802Z,95.04
2017-12-16T05:22:02.010Z,94.31
2017-12-16T05:24:33.719Z,93.50
2017-12-16T05:27:05.745Z,93.09
2017-12-16T05:29:37.406Z,93.76
2017-12-16T05:32:09.947Z,96.07
2017-12-16T05:34:39.032Z,96.57
2017-12-16T05:37:11.271Z,97.02
2017-12-16T05:39:42.737Z,96.65
2017-12-16T05:42:13.917Z,96.52
2017-12-16T05:44:45.547Z,95.34
2017-12-16T05:47:17.941Z,94.45
2017-12-16T05:49:49.369Z,94.96
2017-12-16T05:52:21.268Z,94.00
2017-12-16T05:54:52.552Z,93.04
2017-12-16T05:57:24.612Z,92.38
2017-12-16T05:59:55.893Z,91.77
2017-12-16T06:02:23.763Z,90.95
2017-12-16T06:04:51.645Z,90.80
2017-12-16T06:07:19.394Z,91.63
2017-12-16T06:09:47.174Z,91.91
2017-12-16T06:12:15.387Z,92.08
2017-12-16T06:14:43.198Z,92.53
2017-12-16T06:17:11.288Z,93.10
2017-12-16T06:19:39.012Z,94.45
2017-12-16T06:22:07.210Z,95.25
2017-12-16T06:24:36.170Z,95.12
2017-12-16T06:27:04.177Z,94.07
2017-12-16T06:29:31.991Z,92.82
2017-12-16T06:32:00.616Z,93.31
2017-12-16T06:34:28.364Z,92.54
2017-12-16T06:36:56.333Z,94.40
2017-12-16T06:39:24.217Z,95.54
2017-12-16T06:41:52.317Z,94.99
2017-12-16T06:44:20.170Z,94.42
2017-12-16T06:46:48.819Z,93.94
2017-12-16T06:49:16.776Z,92.26
2017-12-16T06:51:44.582Z,90.81
2017-12-16T06:54:12.556Z,91.37
2017-12-16T06:56:40.561Z,93.19
2017-12-16T06:59:08.387Z,94.74
2017-12-16T07:01:36.413Z,93.92
2017-12-16T07:04:04.223Z,95.17
2017-12-16T07:06:32.262Z,95.95
2017-12-16T07:09:00.151Z,96.90
2017-12-16T07:11:28.035Z,97.71
2017-12-16T07:13:55.869Z,98.45
2017-12-16T07:16:23.708Z,99.01
2017-12-16T07:18:51.537Z,98.61
2017-12-16T07:21:19.465Z,97.24
2017-12-16T07:23:47.462Z,95.29
2017-12-16T07:26:15.097Z,93.91
2017-12-16T07:28:43.342Z,93.90
2017-12-16T07:31:12.502Z,94.07
2017-12-16T07:33:40.443Z,95.17
2017-12-16T07:36:08.728Z,96.40
2017-12-16T07:38:37.454Z,95.54
2017-12-16T07:41:05.497Z,94.47
2017-12-16T07:43:34.692Z,93.25
2017-12-16T07:46:03.786Z,92.67
2017-12-16T07:48:31.619Z,93.36
2017-12-16T07:50:59.182Z,93.93
2017-12-16T07:53:27.095Z,93.19
2017-12-16T07:55:55.447Z,93.24
2017-12-16T07:58:23.827Z,94.33
2017-12-16T08:00:53.285Z,95.90
2017-12-16T08:03:22.888Z,95.61
2017-12-16T08:05:52.712Z,94.08
2017-12-16T08:08:22.494Z,93.48
2017-12-16T08:10:52.562Z,93.67
2017-12-16T08:13:22.190Z,94.82
2017-12-16T08:15:52.623Z,94.36
2017-12-16T08:18:22.257Z,94.09
2017-12-16T08:20:51.362Z,94.55
2017-12-16T08:23:21.608Z,95.45
2017-12-16T08:25:49.125Z,94.65
2017-12-16T08:28:16.647Z,95.22
2017-12-16T08:30:44.402Z,95.03
2017-12-16T08:33:13.025Z,95.09
2017-12-16T08:35:40.538Z,94.95
2017-12-16T08:38:08.262Z,96.31
2017-12-16T08:40:35.777Z,96.76
2017-12-16T08:43:03.314Z,95.29
2017-12-16T08:45:30.846Z,95.75
2017-12-16T08:47:58.446Z,95.89
2017-12-16T08:50:25.954Z,96.51
2017-12-16T08:52:53.569Z,94.87
2017-12-16T08:55:21.103Z,96.68
2017-12-16T08:57:48.621Z,96.82
2017-12-16T09:00:16.186Z,94.65
2017-12-16T09:02:43.712Z,95.56
2017-12-16T09:05:11.368Z,95.82
2017-12-16T09:07:38.978Z,94.75
2017-12-16T09:10:06.499Z,93.81
2017-12-16T09:12:34.027Z,94.27
2017-12-16T09:15:01.536Z,94.40
2017-12-16T09:17:29.032Z,93.95
2017-12-16T09:19:56.553Z,93.49
2017-12-16T09:22:24.084Z,94.12
2017-12-16T09:24:51.617Z,95.45
2017-12-16T09:27:19.255Z,94.45
2017-12-16T09:29:46.780Z,94.00
2017-12-16T09:32:14.313Z,91.82
2017-12-16T09:34:41.849Z,92.15
2017-12-16T09:37:09.373Z,91.59
2017-12-16T09:39:36.899Z,93.92
2017-12-16T09:42:04.452Z,95.58
2017-12-16T09:44:32.012Z,95.15
2017-12-16T09:46:59.578Z,93.23
2017-12-16T09:49:27.097Z,91.30
2017-12-16T09:51:54.623Z,90.39
2017-12-16T09:54:22.152Z,91.20
2017-12-16T09:56:49.671Z,91.95
2017-12-16T09:59:17.217Z,90.72
2017-12-16T10:01:44.731Z,90.05
2017-12-16T10:04:12.268Z,88.87
2017-12-16T10:06:39.816Z,91.68
2017-12-16T10:09:07.348Z,91.17
2017-12-16T10:11:34.874Z,90.65
2017-12-16T10:14:02.516Z,90.93
2017-12-16T10:16:30.027Z,89.64
2017-12-16T10:18:57.584Z,89.80
2017-12-16T10:21:25.198Z,90.38
2017-12-16T10:23:52.727Z,90.02
2017-12-16T10:26:20.274Z,90.63
2017-12-16T10:28:47.787Z,91.13
2017-12-16T10:31:15.338Z,94.76
2017-12-16T10:33:42.863Z,94.40
2017-12-16T10:36:10.392Z,92.06
2017-12-16T10:38:37.918Z,91.76
2017-12-16T10:41:05.524Z,91.06
2017-12-16T10:43:33.068Z,90.57
2017-12-16T10:46:00.690Z,90.25
2017-12-16T10:48:28.241Z,90.71
2017-12-16T10:50:55.774Z,91.85
2017-12-16T10:53:23.405Z,90.58
2017-12-16T10:55:50.948Z,90.52
2017-12-16T10:58:18.617Z,90.38
2017-12-16T11:01:01.892Z,90.85
2017-12-16T11:03:29.426Z,91.73
2017-12-16T11:05:56.967Z,94.22
2017-12-16T11:08:24.512Z,94.88
2017-12-16T11:10:52.004Z,93.93
2017-12-16T11:13:19.548Z,94.63
2017-12-16T11:15:47.078Z,95.29
2017-12-16T11:18:14.608Z,93.78
2017-12-16T11:20:42.154Z,93.56
2017-12-16T11:23:09.679Z,91.40
2017-12-16T11:25:37.199Z,90.56
2017-12-16T11:28:04.736Z,91.48
2017-12-16T11:30:32.266Z,91.23
2017-12-16T11:32:59.792Z,91.80
2017-12-16T11:35:27.324Z,91.72
2017-12-16T11:37:56.034Z,92.60
2017-12-16T11:40:23.628Z,92.37
2017-12-16T11:42:51.182Z,93.07
2017-12-16T11:45:18.722Z,93.01
2017-12-16T11:47:46.254Z,93.91
2017-12-16T11:50:13.796Z,93.79
2017-12-16T11:52:41.322Z,94.19
2017-12-16T11:55:08.847Z,94.22
2017-12-16T11:57:36.384Z,93.95
2017-12-16T12:00:04.002Z,93.85
2017-12-16T12:02:31.535Z,93.56
2017-12-16T12:04:59.063Z,93.44
2017-12-16T12:07:26.607Z,92.90
2017-12-16T12:09:54.164Z,93.10
2017-12-16T12:12:21.950Z,93.04
2017-12-16T12:14:49.467Z,92.81
2017-12-16T12:17:17.008Z,92.27
2017-12-16T12:19:44.537Z,90.78
2017-12-16T12:22:12.099Z,91.69
2017-12-16T12:24:39.634Z,92.32
2017-12-16T12:27:07.188Z,92.06
2017-12-16T12:29:34.733Z,91.13
2017-12-16T12:32:02.240Z,91.33
2017-12-16T12:34:29.787Z,92.00
2017-12-16T12:36:57.352Z,92.39
2017-12-16T12:39:24.886Z,92.21
2017-12-16T12:41:52.407Z,91.53
2017-12-16T12:44:19.947Z,91.37
2017-12-16T12:46:47.459Z,91.55
2017-12-16T12:49:14.986Z,91.54
2017-12-16T12:51:42.544Z,91.14
2017-12-16T12:54:10.063Z,90.56
2017-12-16T12:56:37.578Z,90.79
2017-12-16T12:59:05.097Z,90.74
2017-12-16T13:01:32.636Z,89.88
2017-12-16T13:04:00.168Z,89.96
2017-12-16T13:06:27.905Z,89.75
2017-12-16T13:08:55.516Z,89.24
2017-12-16T13:11:23.059Z,88.22
2017-12-16T13:13:50.685Z,88.03
2017-12-16T13:16:18.235Z,88.58
2017-12-16T13:18:45.764Z,88.19
2017-12-16T13:21:13.273Z,86.20
2017-12-16T13:23:40.832Z,87.99
2017-12-16T13:26:08.402Z,88.71
2017-12-16T13:28:35.944Z,88.75
2017-12-16T13:31:03.648Z,88.21
2017-12-16T13:33:31.188Z,88.50
2017-12-16T13:35:58.740Z,88.53
2017-12-16T13:38:26.328Z,86.94
2017-12-16T13:40:53.869Z,85.50
2017-12-16T13:43:21.413Z,85.50
2017-12-16T13:45:48.945Z,86.83
2017-12-16T13:48:16.494Z,87.20
2017-12-16T13:50:44.030Z,87.25
2017-12-16T13:53:11.588Z,88.82
2017-12-16T13:55:39.129Z,89.00
2017-12-16T13:58:06.662Z,88.38
2017-12-16T14:00:34.225Z,88.31
2017-12-16T14:03:01.801Z,89.15
2017-12-16T14:05:29.349Z,88.61
2017-12-16T14:07:56.924Z,89.25
2017-12-16T14:10:24.494Z,89.65
2017-12-16T14:12:52.039Z,89.57
2017-12-16T14:15:19.584Z,89.13
2017-12-16T14:17:47.121Z,87.91
2017-12-16T14:20:14.675Z,87.34
2017-12-16T14:22:42.218Z,88.62
2017-12-16T14:25:09.723Z,89.76
2017-12-16T14:27:37.267Z,89.52
2017-12-16T14:30:04.799Z,90.02
2017-12-16T14:32:32.310Z,88.64
2017-12-16T14:34:59.835Z,87.75
2017-12-16T14:37:27.392Z,89.41
2017-12-16T14:39:55.042Z,90.29
2017-12-16T14:42:22.557Z,90.56
2017-12-16T14:44:50.099Z,90.73
2017-12-16T14:47:17.624Z,93.03
2017-12-16T14:49:45.147Z,92.24
2017-12-16T14:52:13.205Z,90.45
2017-12-16T14:54:40.745Z,90.14
2017-12-16T14:57:08.274Z,91.59
2017-12-16T14:59:35.799Z,91.52
2017-12-16T15:02:03.388Z,92.11
2017-12-16T15:04:30.920Z,92.04
2017-12-16T15:06:58.488Z,91.97
2017-12-16T15:09:26.028Z,91.26
2017-12-16T15:11:53.605Z,90.38
2017-12-16T15:14:21.174Z,92.86
2017-12-16T15:16:50.459Z,93.29
2017-12-16T15:19:17.984Z,92.04
2017-12-16T15:21:45.524Z,90.72
2017-12-16T15:24:13.060Z,89.72
2017-12-16T15:26:40.633Z,91.04
2017-12-16T15:29:08.177Z,92.06
2017-12-16T15:31:35.732Z,91.64
2017-12-16T15:34:03.274Z,91.34
2017-12-16T15:36:30.828Z,92.32
2017-12-16T15:38:58.370Z,92.18
2017-12-16T15:41:25.936Z,93.02
2017-12-16T15:43:53.475Z,93.72
2017-12-16T15:46:21.023Z,92.48
2017-12-16T15:48:48.569Z,92.46
2017-12-16T15:51:16.134Z,91.17
2017-12-16T15:53:43.670Z,90.48
2017-12-16T15:56:11.219Z,91.81
2017-12-16T15:58:38.903Z,91.88
2017-12-16T16:01:06.473Z,92.68
2017-12-16T16:03:34.054Z,92.65
2017-12-16T16:06:01.773Z,92.29
2017-12-16T16:08:29.309Z,92.07
2017-12-16T16:10:56.865Z,92.04
2017-12-16T16:13:24.404Z,92.76
2017-12-16T16:15:51.965Z,93.48
2017-12-16T16:18:19.552Z,93.79
2017-12-16T16:20:47.112Z,92.91
2017-12-16T16:23:14.674Z,93.56
2017-12-16T16:25:42.211Z,93.16
2017-12-16T16:28:09.812Z,92.18
2017-12-16T16:30:37.391Z,93.44
2017-12-16T16:33:04.945Z,94.11
2017-12-16T16:35:32.490Z,95.14
2017-12-16T16:38:00.028Z,94.39
2017-12-16T16:40:27.568Z,95.33
2017-12-16T16:42:55.109Z,94.95
2017-12-16T16:45:22.644Z,94.64
2017-12-16T16:47:50.174Z,94.50
2017-12-16T16:50:17.724Z,95.20
2017-12-16T16:52:45.265Z,94.52
2017-12-16T16:55:12.813Z,94.40
2017-12-16T16:57:40.379Z,93.33
2017-12-16T17:00:08.071Z,92.32
2017-12-16T17:02:35.626Z,92.88
2017-12-16T17:05:03.168Z,93.19
2017-12-16T17:07:30.723Z,94.34
2017-12-16T17:09:58.275Z,94.98
2017-12-16T17:12:25.819Z,94.91
2017-12-16T17:14:53.349Z,95.60
2017-12-16T17:17:20.915Z,96.40
2017-12-16T17:19:48.446Z,97.24
2017-12-16T17:22:16.121Z,97.07
2017-12-16T17:24:43.643Z,96.44
2017-12-16T17:27:11.179Z,96.35
2017-12-16T17:29:38.713Z,96.25
2017-12-16T17:32:06.304Z,95.83
2017-12-16T17:34:33.916Z,95.12
2017-12-16T17:37:01.450Z,96.11
2017-12-16T17:39:29.026Z,96.78
2017-12-16T17:41:56.559Z,97.12
2017-12-16T17:44:24.105Z,97.27
2017-12-16T17:46:51.648Z,96.71
2017-12-16T17:49:19.185Z,97.05
2017-12-16T17:51:46.725Z,96.52
2017-12-16T17:54:14.393Z,95.93
2017-12-16T17:56:41.933Z,95.45
2017-12-16T17:59:09.473Z,95.73
2017-12-16T18:01:37.008Z,94.85
2017-12-16T18:04:04.545Z,94.00
2017-12-16T18:06:32.120Z,94.06
2017-12-16T18:08:59.650Z,94.14
2017-12-16T18:11:27.198Z,94.89
2017-12-16T18:13:54.746Z,95.53
2017-12-16T18:16:22.306Z,95.07
2017-12-16T18:18:49.839Z,94.79
2017-12-16T18:21:17.393Z,93.83
2017-12-16T18:23:44.928Z,95.34
2017-12-16T18:26:12.465Z,94.13
2017-12-16T18:28:40.004Z,93.64
2017-12-16T18:31:07.556Z,92.84
2017-12-16T18:33:35.110Z,93.46
2017-12-16T18:36:02.660Z,93.16
2017-12-16T18:38:30.252Z,92.55
2017-12-16T18:40:57.835Z,93.34
2017-12-16T18:43:25.424Z,93.07
2017-12-16T18:45:52.985Z,92.82
2017-12-16T18:48:20.595Z,94.91
2017-12-16T18:50:48.125Z,94.27
2017-12-16T18:53:15.665Z,92.79
2017-12-16T18:55:43.416Z,92.44
2017-12-16T18:58:10.954Z,92.37
2017-12-16T19:00:38.554Z,91.64
2017-12-16T19:03:06.140Z,91.42
2017-12-16T19:05:33.680Z,92.24
2017-12-16T19:08:01.240Z,92.89
2017-12-16T19:10:28.784Z,91.93
2017-12-16T19:12:56.330Z,90.92
2017-12-16T19:15:23.909Z,91.34
2017-12-16T19:17:51.612Z,93.30
2017-12-16T19:20:19.146Z,93.71
2017-12-16T19:22:46.716Z,93.94
2017-12-16T19:25:14.336Z,94.08
2017-12-16T19:27:41.883Z,93.24
2017-12-16T19:30:09.414Z,91.92
2017-12-16T19:32:37.069Z,92.26
2017-12-16T19:35:04.645Z,92.25
2017-12-16T19:37:32.196Z,92.32
2017-12-16T19:39:59.750Z,92.10
2017-12-16T19:42:27.344Z,91.82
2017-12-16T19:44:54.899Z,91.28
2017-12-16T19:47:22.435Z,91.06
2017-12-16T19:49:49.980Z,89.97
2017-12-16T19:52:17.541Z,89.94
2017-12-16T19:54:45.100Z,90.49
2017-12-16T19:57:12.674Z,89.58
2017-12-16T19:59:40.250Z,90.10
2017-12-16T20:02:07.796Z,89.73
2017-12-16T20:04:35.386Z,90.00
2017-12-16T20:07:02.964Z,89.95
2017-12-16T20:09:30.495Z,90.32
2017-12-16T20:11:58.125Z,90.39
2017-12-16T20:14:25.758Z,92.58
2017-12-16T20:16:53.280Z,92.47
2017-12-16T20:19:20.826Z,92.97
2017-12-16T20:21:48.374Z,91.80
2017-12-16T20:24:16.091Z,91.69
2017-12-16T20:26:43.750Z,93.30
2017-12-16T20:29:11.281Z,92.75
2017-12-16T20:31:38.905Z,92.55
2017-12-16T20:34:06.472Z,92.29
2017-12-16T20:36:34.017Z,91.65
2017-12-16T20:39:01.574Z,92.31
2017-12-16T20:41:29.141Z,92.41
2017-12-16T20:43:56.812Z,92.09
2017-12-16T20:46:24.370Z,92.56
2017-12-16T20:48:51.952Z,92.77
2017-12-16T20:51:19.486Z,93.32
2017-12-16T20:53:47.082Z,93.71
2017-12-16T20:56:14.700Z,93.75
2017-12-16T20:58:42.260Z,93.13
2017-12-16T21:01:09.810Z,94.48
2017-12-16T21:03:37.332Z,94.71
2017-12-16T21:06:04.913Z,95.28
2017-12-16T21:08:32.475Z,95.56
2017-12-16T21:11:00.024Z,95.20
2017-12-16T21:13:27.596Z,95.37
2017-12-16T21:15:55.143Z,95.76
2017-12-16T21:18:22.685Z,96.08
2017-12-16T21:20:50.294Z,95.79
2017-12-16T21:23:17.856Z,95.81
2017-12-16T21:25:45.414Z,95.42
2017-12-16T21:28:12.968Z,95.26
2017-12-16T21:30:40.511Z,94.63
2017-12-16T21:33:08.055Z,94.28
2017-12-16T21:35:35.629Z,92.68
2017-12-16T21:38:03.192Z,92.71
2017-12-16T21:40:30.797Z,92.98
2017-12-16T21:42:58.380Z,91.57
2017-12-16T21:45:25.914Z,89.76
2017-12-16T21:47:53.502Z,90.06
2017-12-16T21:50:21.054Z,90.32
2017-12-16T21:52:48.599Z,91.11
2017-12-16T21:55:16.188Z,91.95
2017-12-16T21:57:43.719Z,91.61
2017-12-16T22:00:11.250Z,91.46
2017-12-16T22:02:38.787Z,92.16
2017-12-16T22:05:06.338Z,91.82
2017-12-16T22:07:33.888Z,91.30
2017-12-16T22:10:01.445Z,92.09
2017-12-16T22:12:28.976Z,92.36
2017-12-16T22:14:56.520Z,92.40
2017-12-16T22:17:24.044Z,92.50
2017-12-16T22:19:51.617Z,91.98
2017-12-16T22:22:19.165Z,91.60
2017-12-16T22:24:46.726Z,91.19
2017-12-16T22:27:14.270Z,92.03
2017-12-16T22:29:41.852Z,93.53
2017-12-16T22:32:09.406Z,93.57
2017-12-16T22:34:36.971Z,93.34
2017-12-16T22:37:04.512Z,93.71
2017-12-16T22:39:32.177Z,94.66
2017-12-16T22:41:59.735Z,94.34
2017-12-16T22:44:27.276Z,93.58
2017-12-16T22:46:54.872Z,92.72
2017-12-16T22:49:22.400Z,91.94
2017-12-16T22:51:49.950Z,91.90
2017-12-16T22:54:17.495Z,91.69
2017-12-16T22:56:45.037Z,92.89
2017-12-16T22:59:12.676Z,92.28
2017-12-16T23:01:40.221Z,93.27
2017-12-16T23:04:07.755Z,93.52
2017-12-16T23:06:35.294Z,93.02
2017-12-16T23:09:02.870Z,93.24
2017-12-16T23:11:30.429Z,93.23
2017-12-16T23:16:38.677Z,93.80
2017-12-16T23:19:06.225Z,92.36
2017-12-16T23:21:33.752Z,92.87
2017-12-16T23:24:01.298Z,92.44
2017-12-16T23:26:28.831Z,92.41
2017-12-16T23:28:56.369Z,91.83
2017-12-16T23:31:23.913Z,93.69
2017-12-16T23:33:51.431Z,93.88
2017-12-16T23:36:18.971Z,93.43
2017-12-16T23:38:46.517Z,93.05
2017-12-16T23:41:14.060Z,92.77
2017-12-16T23:43:41.596Z,93.37
2017-12-16T23:46:09.132Z,94.23
2017-12-16T23:48:36.687Z,94.70
2017-12-16T23:51:04.219Z,94.83
2017-12-16T23:53:31.873Z,94.64
2017-12-16T23:55:59.405Z,94.81
2017-12-16T23:58:26.973Z,94.87
